createdAt,value
2023-05-02T00:00:36.911Z,6.80
2023-05-02T00:03:07.284Z,8.87
2023-05-02T00:05:35.808Z,7.10
2023-05-02T00:08:03.616Z,7.07
2023-05-02T00:10:31.289Z,7.40
2023-05-02T00:12:59.204Z,7.40
2023-05-02T00:15:27.506Z,6.97
2023-05-02T00:17:55.511Z,7.10
2023-05-02T00:20:25.380Z,6.50
2023-05-02T00:22:53.372Z,7.63
2023-05-02T00:25:21.183Z,6.93
2023-05-02T00:27:51.013Z,6.77
2023-05-02T00:30:19.464Z,7.10
2023-05-02T00:32:47.410Z,7.20
2023-05-02T00:35:15.272Z,6.80
2023-05-02T00:37:44.381Z,7.07
2023-05-02T00:40:13.441Z,6.50
2023-05-02T00:42:41.491Z,6.70
2023-05-02T00:45:09.649Z,6.87
2023-05-02T00:47:39.367Z,6.53
2023-05-02T00:50:07.731Z,6.33
2023-05-02T00:52:36.129Z,6.73
2023-05-02T00:55:05.782Z,7.10
2023-05-02T00:57:34.261Z,7.80
2023-05-02T01:00:02.361Z,7.30
2023-05-02T01:02:39.136Z,6.83
2023-05-02T01:05:11.476Z,7.03
2023-05-02T01:07:57.584Z,6.93
2023-05-02T01:10:31.716Z,7.40
2023-05-02T01:13:01.612Z,6.80
2023-05-02T01:15:29.504Z,6.23
2023-05-02T01:17:58.332Z,7.07
2023-05-02T01:20:28.508Z,6.60
2023-05-02T01:22:59.409Z,6.20
2023-05-02T01:25:32.715Z,6.90
2023-05-02T01:28:06.577Z,6.87
2023-05-02T01:30:37.728Z,6.43
2023-05-02T01:33:06.584Z,6.03
2023-05-02T01:35:35.459Z,5.90
2023-05-02T01:38:04.048Z,6.13
2023-05-02T01:40:32.634Z,6.23
2023-05-02T01:43:00.780Z,6.60
2023-05-02T01:45:29.136Z,6.70
2023-05-02T01:47:59.448Z,6.60
2023-05-02T01:50:27.889Z,6.40
2023-05-02T01:52:56.180Z,6.80
2023-05-02T01:55:25.214Z,6.87
2023-05-02T01:57:54.387Z,6.53
2023-05-02T02:00:23.186Z,6.33
2023-05-02T02:02:53.727Z,6.63
2023-05-02T02:05:23.431Z,6.07
2023-05-02T02:07:51.170Z,6.20
2023-05-02T02:10:19.451Z,5.87
2023-05-02T02:12:51.289Z,6.70
2023-05-02T02:15:20.737Z,5.97
2023-05-02T02:17:50.248Z,6.30
2023-05-02T02:20:18.482Z,5.87
2023-05-02T02:22:48.845Z,6.30
2023-05-02T02:25:17.496Z,5.80
2023-05-02T02:27:45.570Z,5.83
2023-05-02T02:30:13.915Z,6.03
2023-05-02T02:32:41.732Z,5.93
2023-05-02T02:35:10.102Z,5.50
2023-05-02T02:37:40.091Z,6.17
2023-05-02T02:40:13.539Z,6.57
2023-05-02T02:42:46.376Z,6.13
2023-05-02T02:45:21.019Z,5.87
2023-05-02T02:47:51.619Z,6.17
2023-05-02T02:50:24.130Z,5.60
2023-05-02T02:52:56.945Z,6.07
2023-05-02T02:55:30.484Z,5.50
2023-05-02T02:58:01.615Z,5.70
2023-05-02T03:00:30.123Z,5.80
2023-05-02T03:02:58.411Z,5.67
2023-05-02T03:05:26.625Z,5.57
2023-05-02T03:07:54.440Z,6.10
2023-05-02T03:10:24.191Z,5.07
2023-05-02T03:12:56.017Z,5.90
2023-05-02T03:15:40.937Z,5.77
2023-05-02T03:18:10.228Z,5.93
2023-05-02T03:20:38.052Z,4.60
2023-05-02T03:23:07.902Z,5.50
2023-05-02T03:25:36.277Z,5.30
2023-05-02T03:28:07.683Z,5.53
2023-05-02T03:30:40.722Z,5.37
2023-05-02T03:33:09.680Z,5.13
2023-05-02T03:35:38.562Z,5.40
2023-05-02T03:38:06.517Z,4.90
2023-05-02T03:40:34.277Z,5.00
2023-05-02T03:43:02.625Z,4.70
2023-05-02T03:45:35.515Z,4.87
2023-05-02T03:48:03.358Z,4.83
2023-05-02T03:50:32.213Z,4.30
2023-05-02T03:53:00.489Z,4.37
2023-05-02T03:55:40.405Z,4.77
2023-05-02T03:58:11.381Z,5.10
2023-05-02T04:00:40.501Z,5.10
2023-05-02T04:03:09.723Z,5.40
2023-05-02T04:05:42.116Z,5.03
2023-05-02T04:08:11.422Z,5.23
2023-05-02T04:10:39.451Z,5.77
2023-05-02T04:13:10.464Z,5.13
2023-05-02T04:15:42.558Z,5.17
2023-05-02T04:18:11.247Z,5.33
2023-05-02T04:20:38.974Z,4.90
2023-05-02T04:23:07.201Z,5.17
2023-05-02T04:25:35.257Z,5.30
2023-05-02T04:28:04.998Z,4.90
2023-05-02T04:30:33.160Z,5.33
2023-05-02T04:33:08.004Z,4.10
2023-05-02T04:35:40.325Z,4.23
2023-05-02T04:38:09.598Z,3.97
2023-05-02T04:40:37.931Z,4.27
2023-05-02T04:43:07.813Z,4.60
2023-05-02T04:45:47.034Z,3.67
2023-05-02T04:48:24.064Z,4.13
2023-05-02T04:50:53.529Z,4.33
2023-05-02T04:53:22.660Z,4.33
2023-05-02T04:55:51.177Z,3.80
2023-05-02T04:58:19.446Z,4.23
2023-05-02T05:00:52.030Z,3.77
2023-05-02T05:03:19.924Z,4.37
2023-05-02T05:05:49.366Z,3.80
2023-05-02T05:08:19.614Z,3.83
2023-05-02T05:10:47.640Z,4.03
2023-05-02T05:13:15.366Z,3.87
2023-05-02T05:15:45.118Z,4.27
2023-05-02T05:18:13.862Z,4.50
2023-05-02T05:20:41.512Z,4.70
2023-05-02T05:23:10.735Z,4.20
2023-05-02T05:25:39.295Z,3.93
2023-05-02T05:28:07.380Z,4.93
2023-05-02T05:30:37.264Z,4.13
2023-05-02T05:33:08.460Z,4.73
2023-05-02T05:35:36.980Z,4.73
2023-05-02T05:38:04.672Z,4.70
2023-05-02T05:40:37.414Z,5.30
2023-05-02T05:43:06.346Z,5.63
2023-05-02T05:45:37.713Z,5.07
2023-05-02T05:48:06.761Z,4.37
2023-05-02T05:50:40.612Z,5.13
2023-05-02T05:53:08.507Z,4.83
2023-05-02T05:55:41.566Z,4.90
2023-05-02T05:58:10.681Z,5.20
2023-05-02T06:00:39.767Z,5.60
2023-05-02T06:03:09.867Z,4.90
2023-05-02T06:05:38.274Z,5.60
2023-05-02T06:08:05.973Z,5.23
2023-05-02T06:10:33.673Z,5.03
2023-05-02T06:13:03.626Z,6.07
2023-05-02T06:15:35.754Z,5.70
2023-05-02T06:18:05.612Z,5.97
2023-05-02T06:20:33.540Z,6.40
2023-05-02T06:23:01.266Z,5.97
2023-05-02T06:25:29.279Z,6.00
2023-05-02T06:27:56.919Z,6.87
2023-05-02T06:30:26.964Z,6.00
2023-05-02T06:32:54.924Z,6.13
2023-05-02T06:35:22.688Z,6.00
2023-05-02T06:37:50.388Z,6.73
2023-05-02T06:40:18.122Z,6.37
2023-05-02T06:42:45.851Z,6.90
2023-05-02T06:45:13.631Z,7.10
2023-05-02T06:47:44.996Z,7.03
2023-05-02T06:50:12.705Z,7.67
2023-05-02T06:52:40.571Z,7.40
2023-05-02T06:55:08.792Z,7.80
2023-05-02T06:57:36.602Z,8.50
2023-05-02T07:00:04.891Z,8.60
2023-05-02T07:02:33.151Z,7.93
2023-05-02T07:05:02.204Z,8.20
2023-05-02T07:07:30.829Z,8.43
2023-05-02T07:09:59.233Z,7.53
2023-05-02T07:12:27.322Z,7.80
2023-05-02T07:14:55.443Z,7.23
2023-05-02T07:17:23.160Z,7.40
2023-05-02T07:19:51.201Z,6.97
2023-05-02T07:22:20.619Z,6.67
2023-05-02T07:24:48.404Z,7.33
2023-05-02T07:27:16.136Z,7.80
2023-05-02T07:29:43.948Z,7.60
2023-05-02T07:32:11.964Z,7.00
2023-05-02T07:34:39.741Z,7.30
2023-05-02T07:37:07.947Z,6.43
2023-05-02T07:39:37.267Z,7.40
2023-05-02T07:42:04.963Z,6.73
2023-05-02T07:44:33.245Z,6.27
2023-05-02T07:47:01.292Z,6.80
2023-05-02T07:49:29.018Z,7.10
2023-05-02T07:51:57.112Z,7.40
2023-05-02T07:54:26.178Z,7.00
2023-05-02T07:56:58.134Z,6.80
2023-05-02T07:59:26.108Z,6.10
2023-05-02T08:01:54.058Z,6.20
2023-05-02T08:04:22.285Z,6.47
2023-05-02T08:06:50.502Z,6.27
2023-05-02T08:09:19.030Z,6.80
2023-05-02T08:11:47.288Z,7.10
2023-05-02T08:14:17.090Z,6.20
2023-05-02T08:16:46.587Z,6.03
2023-05-02T08:19:14.946Z,6.97
2023-05-02T08:21:43.344Z,6.33
2023-05-02T08:24:11.255Z,6.37
2023-05-02T08:26:39.763Z,6.00
2023-05-02T08:29:07.702Z,6.40
2023-05-02T08:31:36.967Z,6.00
2023-05-02T08:34:05.754Z,5.57
2023-05-02T08:36:33.800Z,5.70
2023-05-02T08:39:01.716Z,4.90
2023-05-02T08:41:30.665Z,5.10
2023-05-02T08:43:59.249Z,5.83
2023-05-02T08:46:27.511Z,6.57
2023-05-02T08:48:59.229Z,5.77
2023-05-02T08:51:28.819Z,6.27
2023-05-02T08:53:57.192Z,6.57
2023-05-02T08:56:26.403Z,6.70
2023-05-02T08:58:54.101Z,5.77
2023-05-02T09:01:24.228Z,5.27
2023-05-02T09:03:52.606Z,5.27
2023-05-02T09:06:22.933Z,4.93
2023-05-02T09:08:52.467Z,5.30
2023-05-02T09:11:21.320Z,5.10
2023-05-02T09:13:49.761Z,4.40
2023-05-02T09:16:18.166Z,4.87
2023-05-02T09:18:46.584Z,4.47
2023-05-02T09:21:15.314Z,4.13
2023-05-02T09:23:46.169Z,4.87
2023-05-02T09:26:21.189Z,4.47
2023-05-02T09:28:50.849Z,4.53
2023-05-02T09:31:43.770Z,5.30
2023-05-02T09:34:11.877Z,4.70
2023-05-02T09:36:43.787Z,4.10
2023-05-02T09:39:14.340Z,4.70
2023-05-02T09:41:43.284Z,3.70
2023-05-02T09:44:12.188Z,3.57
2023-05-02T09:46:44.383Z,3.60
2023-05-02T09:49:14.958Z,3.80
2023-05-02T09:51:44.244Z,3.90
2023-05-02T09:54:14.475Z,4.20
2023-05-02T09:56:56.619Z,4.53
2023-05-02T09:59:25.520Z,3.73
2023-05-02T10:01:57.475Z,3.90
2023-05-02T10:04:25.520Z,4.13
2023-05-02T10:06:54.011Z,4.10
2023-05-02T10:09:23.653Z,4.70
2023-05-02T10:11:53.605Z,4.43
2023-05-02T10:14:22.898Z,3.93
2023-05-02T10:16:56.574Z,4.33
2023-05-02T10:19:25.910Z,4.47
2023-05-02T10:21:54.816Z,4.20
2023-05-02T10:24:25.729Z,4.30
2023-05-02T10:26:53.834Z,4.37
2023-05-02T10:29:21.799Z,4.80
2023-05-02T10:31:50.219Z,4.53
2023-05-02T10:34:19.623Z,4.53
2023-05-02T10:36:47.729Z,5.10
2023-05-02T10:39:15.942Z,4.03
2023-05-02T10:41:45.854Z,4.47
2023-05-02T10:44:13.773Z,4.30
2023-05-02T10:46:41.980Z,3.83
2023-05-02T10:49:10.765Z,3.97
2023-05-02T10:51:41.255Z,3.30
2023-05-02T10:54:26.683Z,3.50
2023-05-02T10:57:08.620Z,3.50
2023-05-02T10:59:37.920Z,4.10
2023-05-02T11:02:25.548Z,3.60
2023-05-02T11:05:00.769Z,3.47
2023-05-02T11:07:29.641Z,3.63
2023-05-02T11:10:12.543Z,3.40
2023-05-02T11:12:47.645Z,3.80
2023-05-02T11:15:16.153Z,3.97
2023-05-02T11:18:00.531Z,4.30
2023-05-02T11:20:28.892Z,5.17
2023-05-02T11:22:58.436Z,5.47
2023-05-02T11:25:31.021Z,5.83
2023-05-02T11:28:00.762Z,6.27
2023-05-02T11:30:38.840Z,6.73
2023-05-02T11:33:16.163Z,5.33
2023-05-02T11:35:46.726Z,5.00
2023-05-02T11:38:15.717Z,4.83
2023-05-02T11:40:52.280Z,5.47
2023-05-02T11:43:22.965Z,5.10
2023-05-02T11:45:51.381Z,4.50
2023-05-02T11:48:20.623Z,4.03
2023-05-02T11:50:50.343Z,4.77
2023-05-02T11:53:23.219Z,4.70
2023-05-02T11:55:52.136Z,4.10
2023-05-02T11:58:22.710Z,4.00
2023-05-02T12:00:51.829Z,4.13
2023-05-02T12:03:28.222Z,4.30
2023-05-02T12:05:56.284Z,4.80
2023-05-02T12:08:25.277Z,3.90
2023-05-02T12:10:54.183Z,4.07
2023-05-02T12:13:24.545Z,3.87
2023-05-02T12:15:53.604Z,3.23
2023-05-02T12:18:24.096Z,3.80
2023-05-02T12:20:52.971Z,4.27
2023-05-02T12:23:21.994Z,3.67
2023-05-02T12:25:50.590Z,4.20
2023-05-02T12:28:19.318Z,3.53
2023-05-02T12:30:50.481Z,3.60
2023-05-02T12:33:18.731Z,3.50
2023-05-02T12:35:47.786Z,3.63
2023-05-02T12:38:17.096Z,3.80
2023-05-02T12:40:50.104Z,3.63
2023-05-02T12:43:18.745Z,4.40
2023-05-02T12:45:48.646Z,4.27
2023-05-02T12:48:25.892Z,3.77
2023-05-02T12:50:59.112Z,3.50
2023-05-02T12:53:42.134Z,3.50
2023-05-02T12:56:13.445Z,4.30
2023-05-02T12:58:43.347Z,4.27
2023-05-02T13:01:11.505Z,4.50
2023-05-02T13:03:41.455Z,4.13
2023-05-02T13:06:09.897Z,4.50
2023-05-02T13:08:37.986Z,4.37
2023-05-02T13:11:06.062Z,4.60
2023-05-02T13:13:35.362Z,4.30
2023-05-02T13:16:03.617Z,4.43
2023-05-02T13:18:31.403Z,4.77
2023-05-02T13:21:01.170Z,5.00
2023-05-02T13:23:28.889Z,4.90
2023-05-02T13:25:56.710Z,4.50
2023-05-02T13:28:24.477Z,4.10
2023-05-02T13:30:52.223Z,4.20
2023-05-02T13:33:20.256Z,4.17
2023-05-02T13:35:48.161Z,4.17
2023-05-02T13:38:17.253Z,4.07
2023-05-02T13:40:46.161Z,4.03
2023-05-02T13:43:14.710Z,3.23
2023-05-02T13:45:42.688Z,3.70
2023-05-02T13:48:10.623Z,5.67
2023-05-02T13:50:39.062Z,3.43
2023-05-02T13:53:07.086Z,3.43
2023-05-02T13:55:36.264Z,4.10
2023-05-02T13:58:04.939Z,3.80
2023-05-02T14:00:32.922Z,3.90
2023-05-02T14:03:01.323Z,3.90
2023-05-02T14:05:29.243Z,4.30
2023-05-02T14:07:57.188Z,4.03
2023-05-02T14:10:25.452Z,4.43
2023-05-02T14:12:54.612Z,4.27
2023-05-02T14:15:22.384Z,4.03
2023-05-02T14:17:50.406Z,4.30
2023-05-02T14:20:18.395Z,4.40
2023-05-02T14:22:46.065Z,3.90
2023-05-02T14:25:15.527Z,3.90
2023-05-02T14:27:43.980Z,4.20
2023-05-02T14:30:13.393Z,4.67
2023-05-02T14:32:41.413Z,4.20
2023-05-02T14:35:09.851Z,6.20
2023-05-02T14:37:37.723Z,4.20
2023-05-02T14:40:06.023Z,4.50
2023-05-02T14:42:35.481Z,4.47
2023-05-02T14:45:03.574Z,3.97
2023-05-02T14:47:33.444Z,4.70
2023-05-02T14:50:02.163Z,3.77
2023-05-02T14:52:30.227Z,3.83
2023-05-02T14:55:00.014Z,4.73
2023-05-02T14:57:28.537Z,5.27
2023-05-02T14:59:56.662Z,4.63
2023-05-02T15:02:25.365Z,5.33
2023-05-02T15:04:54.736Z,5.03
2023-05-02T15:07:23.007Z,6.70
2023-05-02T15:09:50.894Z,5.37
2023-05-02T15:12:19.011Z,4.50
2023-05-02T15:14:47.061Z,5.40
2023-05-02T15:17:17.741Z,4.80
2023-05-02T15:19:45.752Z,4.33
2023-05-02T15:22:16.342Z,4.50
2023-05-02T15:24:44.780Z,4.47
2023-05-02T15:27:12.480Z,3.63
2023-05-02T15:29:40.220Z,4.50
2023-05-02T15:32:08.452Z,3.37
2023-05-02T15:34:36.565Z,4.10
2023-05-02T15:37:04.401Z,4.90
2023-05-02T15:39:33.617Z,4.13
2023-05-02T15:42:03.932Z,4.03
2023-05-02T15:44:33.711Z,4.27
2023-05-02T15:47:01.443Z,6.27
2023-05-02T15:49:32.126Z,3.70
2023-05-02T15:52:00.038Z,6.33
2023-05-02T15:54:28.257Z,3.90
2023-05-02T15:56:57.778Z,4.37
2023-05-02T15:59:25.863Z,4.07
2023-05-02T16:01:55.719Z,3.80
2023-05-02T16:04:25.198Z,7.53
2023-05-02T16:06:53.088Z,4.93
2023-05-02T16:09:22.495Z,5.80
2023-05-02T16:11:50.632Z,4.70
2023-05-02T16:14:23.953Z,4.20
2023-05-02T16:16:52.214Z,4.73
2023-05-02T16:19:22.545Z,6.37
2023-05-02T16:21:51.770Z,5.83
2023-05-02T16:24:20.227Z,4.97
2023-05-02T16:26:48.189Z,6.20
2023-05-02T16:29:16.246Z,5.73
2023-05-02T16:31:46.307Z,4.70
2023-05-02T16:34:14.126Z,5.13
2023-05-02T16:36:42.523Z,4.30
2023-05-02T16:39:12.105Z,4.30
2023-05-02T16:41:40.729Z,4.10
2023-05-02T16:44:10.676Z,4.00
2023-05-02T16:46:39.314Z,3.90
2023-05-02T16:49:08.953Z,4.53
2023-05-02T16:51:36.857Z,4.17
2023-05-02T16:54:06.667Z,4.30
2023-05-02T16:56:34.354Z,4.60
2023-05-02T16:59:02.047Z,3.70
2023-05-02T17:01:31.298Z,3.63
2023-05-02T17:03:59.673Z,4.00
2023-05-02T17:06:32.131Z,3.67
2023-05-02T17:08:59.948Z,4.03
2023-05-02T17:11:29.848Z,4.70
2023-05-02T17:13:59.161Z,4.87
2023-05-02T17:16:27.260Z,3.50
2023-05-02T17:18:55.299Z,3.57
2023-05-02T17:21:23.015Z,3.80
2023-05-02T17:23:52.916Z,3.73
2023-05-02T17:26:21.274Z,4.53
2023-05-02T17:28:50.439Z,4.10
2023-05-02T17:31:18.486Z,3.80
2023-05-02T17:33:46.386Z,4.27
2023-05-02T17:36:14.768Z,3.83
2023-05-02T17:38:42.647Z,4.50
2023-05-02T17:41:12.409Z,5.93
2023-05-02T17:43:43.373Z,4.20
2023-05-02T17:46:11.824Z,4.50
2023-05-02T17:48:40.215Z,4.10
2023-05-02T17:51:08.114Z,4.37
2023-05-02T17:53:36.651Z,4.30
2023-05-02T17:56:04.745Z,3.80
2023-05-02T17:58:35.453Z,4.13
2023-05-02T18:01:07.784Z,4.70
2023-05-02T18:03:37.497Z,4.50
2023-05-02T18:06:05.957Z,4.70
2023-05-02T18:08:34.063Z,4.60
2023-05-02T18:11:03.605Z,4.77
2023-05-02T18:13:32.278Z,4.97
2023-05-02T18:16:02.492Z,4.97
2023-05-02T18:18:32.998Z,3.90
2023-05-02T18:21:00.747Z,4.67
2023-05-02T18:23:28.727Z,4.47
2023-05-02T18:25:56.979Z,4.03
2023-05-02T18:28:24.752Z,3.40
2023-05-02T18:30:52.541Z,3.90
2023-05-02T18:33:21.861Z,3.93
2023-05-02T18:35:51.941Z,3.47
2023-05-02T18:38:20.222Z,3.37
2023-05-02T18:40:48.137Z,3.10
2023-05-02T18:43:15.801Z,3.50
2023-05-02T18:45:44.550Z,3.53
2023-05-02T18:48:12.661Z,2.77
2023-05-02T18:50:41.764Z,3.40
2023-05-02T18:53:09.514Z,3.90
2023-05-02T18:55:37.716Z,4.40
2023-05-02T18:58:05.387Z,2.90
2023-05-02T19:00:36.879Z,3.00
2023-05-02T19:03:05.324Z,2.80
2023-05-02T19:05:34.636Z,3.00
2023-05-02T19:08:05.602Z,3.13
2023-05-02T19:10:33.939Z,3.07
2023-05-02T19:13:01.790Z,3.53
2023-05-02T19:15:30.581Z,3.10
2023-05-02T19:17:58.784Z,3.10
2023-05-02T19:20:28.316Z,3.10
2023-05-02T19:23:10.995Z,3.23
2023-05-02T19:25:47.417Z,3.30
2023-05-02T19:28:17.077Z,2.33
2023-05-02T19:30:45.491Z,2.93
2023-05-02T19:33:13.710Z,2.30
2023-05-02T19:35:42.799Z,2.60
2023-05-02T19:38:11.586Z,2.60
2023-05-02T19:40:39.713Z,2.73
2023-05-02T19:43:09.122Z,2.63
2023-05-02T19:45:37.095Z,2.80
2023-05-02T19:48:05.036Z,4.80
2023-05-02T19:50:33.683Z,2.80
2023-05-02T19:53:02.054Z,5.73
2023-05-02T19:55:31.154Z,5.20
2023-05-02T19:58:00.500Z,3.60
2023-05-02T20:00:29.673Z,4.20
2023-05-02T20:02:58.140Z,4.80
2023-05-02T20:05:26.410Z,4.20
2023-05-02T20:07:54.549Z,3.57
2023-05-02T20:10:22.934Z,3.27
2023-05-02T20:12:50.727Z,3.17
2023-05-02T20:15:18.476Z,2.77
2023-05-02T20:17:47.947Z,5.90
2023-05-02T20:20:16.092Z,3.37
2023-05-02T20:22:44.486Z,2.60
2023-05-02T20:25:12.889Z,3.20
2023-05-02T20:27:47.421Z,3.40
2023-05-02T20:30:19.112Z,3.50
2023-05-02T20:32:48.395Z,6.23
2023-05-02T20:35:17.320Z,4.90
2023-05-02T20:37:46.791Z,10.33
2023-05-02T20:40:15.080Z,5.57
2023-05-02T20:42:43.964Z,3.70
2023-05-02T20:45:13.998Z,9.30
2023-05-02T20:47:42.377Z,5.00
2023-05-02T20:50:11.863Z,3.70
2023-05-02T20:52:40.062Z,5.23
2023-05-02T20:55:08.166Z,5.33
2023-05-02T20:57:36.859Z,3.60
2023-05-02T21:00:05.361Z,5.20
2023-05-02T21:02:35.247Z,5.67
2023-05-02T21:05:03.439Z,5.77
2023-05-02T21:07:32.638Z,3.37
2023-05-02T21:10:00.886Z,4.13
2023-05-02T21:12:29.408Z,4.40
2023-05-02T21:14:57.459Z,3.60
2023-05-02T21:17:26.390Z,3.53
2023-05-02T21:19:54.245Z,3.70
2023-05-02T21:22:22.090Z,8.13
2023-05-02T21:24:51.505Z,8.23
2023-05-02T21:27:19.374Z,11.27
2023-05-02T21:29:47.508Z,3.73
2023-05-02T21:32:15.967Z,7.43
2023-05-02T21:34:44.019Z,12.03
2023-05-02T21:37:12.285Z,8.20
2023-05-02T21:39:40.188Z,6.17
2023-05-02T21:42:09.205Z,13.87
2023-05-02T21:44:36.957Z,5.00
2023-05-02T21:47:06.143Z,5.47
2023-05-02T21:49:34.084Z,7.63
2023-05-02T21:52:01.864Z,4.63
2023-05-02T21:54:29.931Z,6.43
2023-05-02T21:56:57.645Z,6.57
2023-05-02T21:59:26.763Z,6.53
2023-05-02T22:01:54.731Z,5.43
2023-05-02T22:04:22.416Z,6.80
2023-05-02T22:06:51.354Z,9.50
2023-05-02T22:09:19.297Z,4.00
2023-05-02T22:11:47.066Z,7.27
2023-05-02T22:14:15.030Z,6.30
2023-05-02T22:16:44.658Z,3.70
2023-05-02T22:19:14.513Z,3.23
2023-05-02T22:21:42.473Z,7.23
2023-05-02T22:24:10.426Z,3.47
2023-05-02T22:26:38.224Z,5.67
2023-05-02T22:29:06.701Z,3.40
2023-05-02T22:31:35.151Z,3.40
2023-05-02T22:34:04.657Z,10.03
2023-05-02T22:36:33.461Z,6.20
2023-05-02T22:39:01.414Z,8.03
2023-05-02T22:41:29.844Z,4.93
2023-05-02T22:43:57.870Z,4.40
2023-05-02T22:46:26.986Z,5.57
2023-05-02T22:48:56.717Z,5.50
2023-05-02T22:51:27.400Z,3.87
2023-05-02T22:53:55.388Z,4.40
2023-05-02T22:56:24.496Z,3.73
2023-05-02T22:58:53.227Z,3.70
2023-05-02T23:01:21.210Z,6.77
2023-05-02T23:03:49.523Z,3.57
2023-05-02T23:06:17.737Z,4.67
2023-05-02T23:08:46.897Z,3.77
2023-05-02T23:11:14.945Z,3.43
2023-05-02T23:13:43.131Z,3.10
2023-05-02T23:16:11.115Z,2.73
2023-05-02T23:18:38.878Z,4.33
2023-05-02T23:21:07.070Z,4.47
2023-05-02T23:23:34.832Z,4.60
2023-05-02T23:26:03.900Z,3.17
2023-05-02T23:28:31.911Z,3.73
2023-05-02T23:31:00.119Z,5.20
2023-05-02T23:33:28.312Z,5.10
2023-05-02T23:35:56.521Z,6.30
2023-05-02T23:38:24.477Z,3.90
2023-05-02T23:40:52.778Z,7.60
2023-05-02T23:43:22.304Z,3.63
2023-05-02T23:45:50.122Z,6.67
2023-05-02T23:48:17.893Z,4.43
2023-05-02T23:50:45.769Z,3.97
2023-05-02T23:53:13.504Z,4.80
2023-05-02T23:55:41.423Z,2.90
2023-05-02T23:58:10.285Z,4.40
